Rainbow Heights (1233, RB1) Station Data

Red Flag Warning: No
Fire Weather Zone: 250
SDGE Region: North East
Lat/Lon: 33.414/-117.126

Observations

Time Wind Speed/Gust Temp(F) RH Fuel Moist Fuel Temp(F) Dewpt(F) Tmax(F) Tmin(F) Accum Precip 10-min Precip SL Press(mb)
6/22 5:00am 245 0 G 0 64° 68% - - 53° 75.3° 63.5° - - -
6/22 4:50am 186 0 G 1 66° 61% - - 52° 75.3° 64.7° - - -
6/22 4:40am 154 0 G 1 67° 60% - - 53° 75.3° 66° - - -
6/22 4:30am 64 0 G 2 69° 54% - - 52° 75.3° 66° - - -
6/22 4:20am 357 0 G 1 68° 57% - - 52° 75.3° 66° - - -
6/22 4:10am 0 0 G 0 68° 56% - - 52° 75.3° 66° - - -
6/22 4:00am 31 0 G 1 67° 64% - - 55° 75.3° 66° - - -
6/22 3:50am 57 0 G 1 67° 68% - - 56° 75.3° 66° - - -
6/22 3:40am 0 0 G 0 67° 70% - - 56° 75.3° 66° - - -
6/22 3:30am 72 0 G 1 67° 69% - - 57° 75.3° 66° - - -
6/22 3:20am 0 0 G 0 68° 67% - - 57° 75.3° 66° - - -
6/22 3:10am 3 0 G 1 69° 67% - - 57° 75.3° 66° - - -
6/22 3:00am 355 1 G 2 67° 71% - - 57° 75.3° 66° - - -
6/22 2:50am 43 0 G 1 67° 72% - - 58° 75.3° 66.2° - - -
6/22 2:40am 39 0 G 1 68° 69% - - 58° 75.3° 67.2° - - -
6/22 2:30am 309 0 G 1 69° 67% - - 58° 75.3° 68.5° - - -
6/22 2:20am 236 1 G 3 72° 63% - - 58° 75.3° 69.8° - - -
6/22 2:10am 318 1 G 2 72° 60% - - 58° 75.3° 69.9° - - -
6/22 2:00am 55 0 G 2 71° 61% - - 57° 75.3° 69.9° - - -
6/22 1:50am 22 0 G 1 71° 62% - - 57° 75.3° 69.9° - - -
6/22 1:40am 38 1 G 2 72° 59% - - 57° 75.3° 71.1° - - -
6/22 1:30am 340 0 G 2 73° 56% - - 57° 75.3° 72.1° - - -
6/22 1:20am 241 0 G 1 73° 58% - - 57° 75.3° 72.1° - - -
6/22 1:10am 139 0 G 1 74° 56% - - 57° 75.3° 73° - - -
6/22 1:00am 282 0 G 1 73° 56% - - 57° 75.3° 73° - - -
6/22 12:50am 55 1 G 2 74° 56% - - 57° 75.3° 73.4° - - -
6/22 12:40am 38 1 G 2 74° 54% - - 56° 75.3° 73.7° - - -
6/22 12:30am 6 1 G 1 74° 53% - - 56° 75.3° 73.8° - - -
6/22 12:20am 328 1 G 2 75° 51% - - 55° 75.3° 74° - - -
6/22 12:10am 273 2 G 4 74° 50% - - 55° 75.1° 74° - - -
6/22 12:00am 250 0 G 1 74° 55% - - 57° 90.7° 73.1° - - -
6/21 11:50pm 0 0 G 0 74° 56% - - 57° 90.7° 73.1° - - -
6/21 11:40pm 283 0 G 1 74° 58% - - 58° 90.7° 73.1° - - -
6/21 11:30pm 0 0 G 0 74° 59% - - 59° 90.7° 73.3° - - -
6/21 11:20pm 248 0 G 0 74° 60% - - 59° 90.7° 73.3° - - -
6/21 11:10pm 221 0 G 1 74° 56% - - 57° 90.7° 73.4° - - -
6/21 11:00pm 209 1 G 2 75° 49% - - 54° 90.7° 73.4° - - -
6/21 10:50pm 202 0 G 1 75° 50% - - 55° 90.7° 73.4° - - -
6/21 10:40pm 223 0 G 1 74° 56% - - 58° 90.7° 73.4° - - -
6/21 10:30pm 222 0 G 1 75° 58% - - 59° 90.7° 73.4° - - -
6/21 10:20pm 264 0 G 2 75° 60% - - 60° 90.7° 73.4° - - -
6/21 10:10pm 224 0 G 1 75° 59% - - 60° 90.7° 73.4° - - -
6/21 10:00pm 167 1 G 1 76° 57% - - 60° 90.7° 73.4° - - -
6/21 9:50pm 258 1 G 2 76° 59% - - 60° 90.7° 73.4° - - -
6/21 9:40pm 311 0 G 1 74° 60% - - 59° 90.7° 73.4° - - -
6/21 9:30pm 0 0 G 0 75° 59% - - 60° 90.7° 74.1° - - -
6/21 9:20pm 250 0 G 1 75° 58% - - 59° 90.7° 74.1° - - -
6/21 9:10pm 184 1 G 3 76° 56% - - 60° 90.7° 74.1° - - -
6/21 9:00pm 292 1 G 3 75° 58% - - 59° 90.7° 74.1° - - -
6/21 8:50pm 202 0 G 1 76° 57% - - 59° 90.7° 74.1° - - -
6/21 8:40pm 258 1 G 3 76° 57% - - 59° 90.7° 74.1° - - -
6/21 8:30pm 234 2 G 4 75° 57% - - 59° 90.7° 74.1° - - -
6/21 8:20pm 195 3 G 4 76° 56% - - 59° 90.7° 74.1° - - -
6/21 8:10pm 217 2 G 4 75° 56% - - 59° 90.7° 74.1° - - -
6/21 8:00pm 183 1 G 3 76° 55% - - 58° 90.7° 74.1° - - -
6/21 7:50pm 199 1 G 2 76° 55% - - 59° 90.7° 74.1° - - -
6/21 7:40pm 181 1 G 5 77° 53% - - 59° 90.7° 74.1° - - -
6/21 7:30pm 220 4 G 6 79° 50% - - 59° 90.7° 74.1° - - -
6/21 7:20pm 210 5 G 7 80° 46% - - 58° 90.7° 74.1° - - -
6/21 7:10pm 203 5 G 7 80° 46% - - 57° 90.7° 74.1° - - -
6/21 7:00pm 201 4 G 5 80° 47% - - 58° 90.7° 74.1° - - -
6/21 6:50pm 222 3 G 5 81° 48% - - 59° 90.7° 74.1° - - -
6/21 6:40pm 214 3 G 5 81° 47% - - 59° 90.7° 74.1° - - -
6/21 6:30pm 203 3 G 5 81° 47% - - 59° 90.7° 74.1° - - -
6/21 6:20pm 202 3 G 5 81° 46% - - 59° 90.7° 74.1° - - -
6/21 6:10pm 215 2 G 6 81° 49% - - 59° 90.7° 74.1° - - -
6/21 6:00pm 242 4 G 6 80° 51% - - 60° 90.7° 74.1° - - -
6/21 5:50pm 240 5 G 7 81° 50% - - 61° 90.7° 74.1° - - -
6/21 5:40pm 219 3 G 5 81° 50% - - 61° 90.7° 74.1° - - -
6/21 5:30pm 227 3 G 6 82° 50% - - 61° 90.7° 74.1° - - -
6/21 5:20pm 240 4 G 7 82° 49% - - 61° 90.7° 74.1° - - -
6/21 5:10pm 206 3 G 6 83° 47% - - 61° 90.7° 74.1° - - -
6/21 5:00pm 200 3 G 6 84° 47% - - 61° 90.7° 74.1° - - -
6/21 4:50pm 190 3 G 7 84° 46% - - 61° 90.7° 74.1° - - -
6/21 4:40pm 192 4 G 8 83° 47% - - 61° 90.7° 74.1° - - -
6/21 4:30pm 228 5 G 9 84° 46% - - 61° 90.7° 74.1° - - -
6/21 4:20pm 221 3 G 7 85° 44% - - 60° 90.7° 74.1° - - -
6/21 4:10pm 207 3 G 8 85° 44% - - 61° 90.7° 74.1° - - -
6/21 4:00pm 220 4 G 8 85° 42% - - 59° 90.7° 74.1° - - -
6/21 3:50pm 209 3 G 8 85° 42% - - 59° 90.7° 74.1° - - -
6/21 3:40pm 255 6 G 10 84° 44% - - 60° 90.7° 74.1° - - -
6/21 3:30pm 244 6 G 11 84° 44% - - 60° 90.7° 74.1° - - -
6/21 3:20pm 243 6 G 14 84° 44% - - 60° 90.7° 74.1° - - -
6/21 3:10pm 231 5 G 11 85° 44% - - 61° 90.7° 74.1° - - -
6/21 3:00pm 245 5 G 11 85° 45% - - 61° 90.7° 74.1° - - -
6/21 2:50pm 253 7 G 11 84° 45% - - 61° 90.7° 74.1° - - -
6/21 2:40pm 246 7 G 12 85° 44% - - 61° 90.7° 74.1° - - -
6/21 2:30pm 251 8 G 12 85° 43% - - 60° 90.7° 74.1° - - -
6/21 2:20pm 247 7 G 11 86° 41% - - 60° 90.7° 74.1° - - -
6/21 2:10pm 232 5 G 12 88° 40% - - 60° 90.7° 74.1° - - -
6/21 2:00pm 234 6 G 10 86° 41% - - 60° 90.7° 74.1° - - -
6/21 1:50pm 255 8 G 12 86° 43% - - 61° 90.7° 74.1° - - -
6/21 1:40pm 247 8 G 12 86° 41% - - 60° 90.7° 74.1° - - -
6/21 1:30pm 241 7 G 11 86° 41% - - 60° 90.7° 74.1° - - -
6/21 1:20pm 251 7 G 11 86° 41% - - 60° 90.7° 74.1° - - -
6/21 1:10pm 251 7 G 11 87° 41% - - 60° 90.7° 74.1° - - -
6/21 1:00pm 249 5 G 10 87° 40% - - 60° 90.7° 74.1° - - -
6/21 12:50pm 226 4 G 10 88° 39% - - 60° 90.7° 74.1° - - -
6/21 12:40pm 253 6 G 10 87° 42% - - 61° 90.7° 74.1° - - -
6/21 12:30pm 249 6 G 9 86° 44% - - 61° 90.7° 74.1° - - -
6/21 12:20pm 254 6 G 9 86° 44% - - 62° 90.7° 74.1° - - -
6/21 12:10pm 238 5 G 9 88° 41% - - 61° 90.7° 74.1° - - -
6/21 12:00pm 242 4 G 9 87° 43% - - 61° 90.7° 74.1° - - -
6/21 11:50am 246 5 G 7 87° 43% - - 61° 90.7° 74.1° - - -
6/21 11:40am 235 5 G 7 87° 43% - - 61° 90.7° 74.1° - - -
6/21 11:30am 191 3 G 7 88° 40% - - 61° 90.7° 74.1° - - -
6/21 11:20am 127 5 G 8 88° 39% - - 60° 90.7° 74.1° - - -
6/21 11:10am 144 4 G 9 88° 39% - - 60° 90.7° 74.1° - - -
6/21 11:00am 123 5 G 8 87° 40% - - 60° 88° 74.1° - - -
6/21 10:50am 127 5 G 8 86° 39% - - 58° 88° 74.1° - - -
6/21 10:40am 135 5 G 10 87° 36% - - 57° 88° 74.1° - - -
6/21 10:30am 142 4 G 8 86° 33% - - 54° 87.3° 74.1° - - -
6/21 10:20am 142 4 G 7 86° 30% - - 51° 87.3° 74.1° - - -
6/21 10:10am 125 4 G 7 86° 33% - - 53° 86.6° 74.1° - - -
6/21 10:00am 124 5 G 7 85° 36% - - 55° 86.2° 74.1° - - -
6/21 9:50am 114 4 G 7 85° 35% - - 55° 86.2° 74.1° - - -
6/21 9:40am 113 3 G 5 84° 40% - - 58° 85.2° 74.1° - - -
6/21 9:30am 122 3 G 5 83° 43% - - 59° 85° 74.1° - - -
6/21 9:20am 97 3 G 5 84° 42% - - 58° 85° 74.1° - - -
6/21 9:10am 100 3 G 5 84° 39% - - 57° 85° 74.1° - - -
6/21 9:00am 99 2 G 4 83° 40% - - 56° 84.1° 74.1° - - -
6/21 8:50am 109 2 G 4 82° 40% - - 55° 83.3° 74.1° - - -
6/21 8:40am 87 2 G 5 82° 39% - - 55° 83.3° 74.1° - - -
6/21 8:30am 65 4 G 7 83° 39% - - 55° 83.3° 74.1° - - -
6/21 8:20am 76 4 G 8 82° 40% - - 55° 83.1° 74.1° - - -
6/21 8:10am 69 5 G 8 82° 42% - - 56° 82.9° 74.1° - - -
6/21 8:00am 62 5 G 8 81° 45% - - 57° 82.2° 74.1° - - -
6/21 7:50am 63 4 G 8 81° 46% - - 58° 82.2° 74.1° - - -
6/21 7:40am 51 4 G 7 80° 46% - - 57° 82.2° 74.1° - - -
6/21 7:30am 42 6 G 9 80° 45% - - 56° 82.2° 74.1° - - -
6/21 7:20am 57 5 G 9 80° 43% - - 55° 82.2° 74.1° - - -
6/21 7:10am 36 4 G 7 79° 43% - - 54° 82.2° 74.1° - - -
6/21 7:00am 41 5 G 9 77° 49% - - 56° 82.2° 74.1° - - -
6/21 6:50am 38 5 G 8 76° 49% - - 56° 82.2° 74.1° - - -
6/21 6:40am 35 5 G 9 76° 50% - - 56° 82.2° 74.1° - - -
6/21 6:30am 30 5 G 9 75° 51% - - 56° 82.2° 74.1° - - -
6/21 6:20am 30 4 G 7 75° 51% - - 55° 82.2° 74.1° - - -
6/21 6:10am 12 5 G 7 75° 48% - - 54° 82.2° 74.1° - - -
6/21 6:00am 9 5 G 7 75° 47% - - 53° 82.2° 74.3° - - -
6/21 5:50am 33 4 G 7 76° 39% - - 49° 82.2° 74.3° - - -
6/21 5:40am 39 4 G 7 75° 38% - - 48° 82.2° 74.3° - - -
6/21 5:30am 61 3 G 6 76° 36% - - 47° 82.2° 74.7° - - -
6/21 5:20am 26 6 G 12 78° 30% - - 44° 82.2° 75.1° - - -
6/21 5:10am 35 6 G 10 76° 35% - - 46° 82.2° 75.1° - - -
6/21 5:00am 31 6 G 10 77° 33% - - 46° 82.2° 76.2° - - -
6/21 4:50am 27 7 G 10 77° 33% - - 46° 82.2° 76.2° - - -
6/21 4:40am 34 6 G 11 78° 33% - - 47° 82.2° 76.3° - - -
6/21 4:30am 38 6 G 11 79° 32% - - 46° 82.2° 76.3° - - -
6/21 4:20am 30 7 G 13 79° 32% - - 46° 82.2° 76.3° - - -
6/21 4:10am 40 5 G 8 78° 33% - - 47° 82.2° 76.3° - - -
6/21 4:00am 20 7 G 9 79° 33% - - 48° 82.2° 77° - - -
6/21 3:50am 19 8 G 10 79° 34% - - 48° 82.2° 77° - - -
6/21 3:40am 40 4 G 8 79° 37% - - 51° 82.2° 77° - - -
6/21 3:30am 17 1 G 3 80° 37% - - 51° 82.2° 77° - - -
6/21 3:20am 2 2 G 3 80° 37% - - 51° 82.2° 77° - - -
6/21 3:10am 239 1 G 3 78° 38% - - 50° 82.2° 77° - - -
6/21 3:00am 27 3 G 7 78° 38% - - 50° 82.2° 77.2° - - -
6/21 2:50am 29 5 G 7 79° 38% - - 51° 82.2° 77.4° - - -
6/21 2:40am 46 3 G 5 78° 39% - - 51° 82.2° 77.4° - - -
6/21 2:30am 16 1 G 3 78° 40% - - 52° 82.2° 77.4° - - -
6/21 2:20am 37 3 G 6 78° 40% - - 52° 82.2° 77.6° - - -
6/21 2:10am 20 1 G 3 78° 40% - - 52° 82.2° 77.9° - - -
6/21 2:00am 22 2 G 3 79° 40% - - 52° 82.2° 77.9° - - -
6/21 1:50am 285 1 G 3 79° 41% - - 53° 82.2° 77.9° - - -
6/21 1:40am 44 2 G 6 80° 40% - - 53° 82.2° 78.1° - - -
6/21 1:30am 28 5 G 7 79° 41% - - 53° 82.2° 78.1° - - -
6/21 1:20am 51 1 G 4 79° 41% - - 54° 82.2° 78.1° - - -
6/21 1:10am 33 1 G 4 79° 41% - - 54° 82.2° 78.1° - - -
6/21 1:00am 32 3 G 5 79° 41% - - 54° 82.2° 78.1° - - -
6/21 12:50am 25 2 G 5 81° 39% - - 54° 82.2° 79.6° - - -
6/21 12:40am 16 3 G 7 81° 39% - - 54° 82.2° 79.6° - - -
6/21 12:30am 23 1 G 3 80° 39% - - 53° 82.2° 79.6° - - -
6/21 12:20am 12 1 G 2 82° 38% - - 53° 82.2° 80.1° - - -
6/21 12:10am 338 1 G 3 81° 36% - - 52° 81.9° 80.1° - - -
6/21 12:00am 45 0 G 1 81° 34% - - 50° 91.6° 74.8° - - -
6/20 11:50pm 17 1 G 1 81° 34% - - 50° 91.6° 74.8° - - -
6/20 11:40pm 29 1 G 3 82° 33% - - 51° 91.6° 74.8° - - -
6/20 11:30pm 334 3 G 4 82° 33% - - 50° 91.6° 74.8° - - -
6/20 11:20pm 336 0 G 2 81° 39% - - 54° 91.6° 74.8° - - -
6/20 11:10pm 261 1 G 2 82° 37% - - 53° 91.6° 74.8° - - -
6/20 11:00pm 237 1 G 2 82° 38% - - 54° 91.6° 74.8° - - -
6/20 10:50pm 12 0 G 2 81° 37% - - 53° 91.6° 74.8° - - -
6/20 10:40pm 328 0 G 1 79° 41% - - 53° 91.6° 74.8° - - -
6/20 10:30pm 224 0 G 1 78° 46% - - 56° 91.6° 74.8° - - -
6/20 10:20pm 232 1 G 1 78° 49% - - 57° 91.6° 74.8° - - -
6/20 10:10pm 198 1 G 2 79° 47% - - 57° 91.6° 74.8° - - -
6/20 10:00pm 236 0 G 1 79° 44% - - 56° 91.6° 74.8° - - -
6/20 9:50pm 128 0 G 1 80° 40% - - 54° 91.6° 74.8° - - -
6/20 9:40pm 230 0 G 1 81° 37% - - 53° 91.6° 74.8° - - -
6/20 9:30pm 154 0 G 1 82° 36% - - 52° 91.6° 74.8° - - -
6/20 9:20pm 198 0 G 2 83° 35% - - 52° 91.6° 74.8° - - -
6/20 9:10pm 142 0 G 1 83° 36% - - 53° 91.6° 74.8° - - -
6/20 9:00pm 125 0 G 1 83° 35% - - 53° 91.6° 74.8° - - -
6/20 8:50pm 162 1 G 2 83° 35% - - 53° 91.6° 74.8° - - -
6/20 8:40pm 176 0 G 2 83° 36% - - 53° 91.6° 74.8° - - -
6/20 8:30pm 142 1 G 2 83° 36% - - 53° 91.6° 74.8° - - -
6/20 8:20pm 127 1 G 2 83° 36% - - 54° 91.6° 74.8° - - -
6/20 8:10pm 145 1 G 2 83° 36% - - 53° 91.6° 74.8° - - -
6/20 8:00pm 119 1 G 3 83° 37% - - 54° 91.6° 74.8° - - -
6/20 7:50pm 136 1 G 2 83° 37% - - 54° 91.6° 74.8° - - -
6/20 7:40pm 158 2 G 4 82° 37% - - 53° 91.6° 74.8° - - -
6/20 7:30pm 178 3 G 5 82° 37% - - 53° 91.6° 74.8° - - -
6/20 7:20pm 162 2 G 5 82° 38% - - 54° 91.6° 74.8° - - -
6/20 7:10pm 153 2 G 4 82° 39% - - 55° 91.6° 74.8° - - -
6/20 7:00pm 159 3 G 4 83° 39% - - 55° 91.6° 74.8° - - -
6/20 6:50pm 153 3 G 5 83° 38% - - 55° 91.6° 74.8° - - -
6/20 6:40pm 169 3 G 6 83° 37% - - 55° 91.6° 74.8° - - -
6/20 6:30pm 168 4 G 6 83° 38% - - 55° 91.6° 74.8° - - -
6/20 6:20pm 167 4 G 7 83° 38% - - 54° 91.6° 74.8° - - -
6/20 6:10pm 153 4 G 7 82° 39% - - 55° 91.6° 74.8° - - -
6/20 6:00pm 138 5 G 7 83° 40% - - 56° 91.6° 74.8° - - -